createdAt,value
2022-11-27T00:04:17.707Z,86.80
2022-11-27T00:09:23.664Z,83.70
2022-11-27T00:14:29.536Z,80.30
2022-11-27T00:19:35.278Z,75.50
2022-11-27T00:24:41.102Z,76.70
2022-11-27T00:29:46.930Z,82.50
2022-11-27T00:34:52.651Z,79.80
2022-11-27T00:39:58.364Z,73.90
2022-11-27T00:45:04.529Z,82.30
2022-11-27T00:50:11.159Z,78.50
2022-11-27T00:55:17.072Z,75.40
2022-11-27T01:00:23.934Z,72.80
2022-11-27T01:05:29.614Z,68.90
2022-11-27T01:10:35.366Z,71.70
2022-11-27T01:15:41.195Z,75.00
2022-11-27T01:20:46.859Z,69.20
2022-11-27T01:25:55.942Z,65.40
2022-11-27T01:31:06.977Z,66.90
2022-11-27T01:36:14.652Z,73.40
2022-11-27T01:41:22.551Z,67.70
2022-11-27T01:46:35.084Z,63.40
2022-11-27T01:51:46.668Z,70.30
2022-11-27T01:56:57.941Z,74.80
2022-11-27T02:02:05.069Z,71.00
2022-11-27T02:07:11.166Z,68.80
2022-11-27T02:12:25.128Z,69.00
2022-11-27T02:17:39.473Z,66.10
2022-11-27T02:23:02.517Z,64.10
2022-11-27T02:28:34.786Z,67.30
2022-11-27T02:33:45.460Z,61.60
2022-11-27T02:39:01.065Z,67.40
2022-11-27T02:44:10.562Z,67.50
2022-11-27T02:49:19.346Z,71.80
2022-11-27T02:54:28.825Z,63.90
2022-11-27T02:59:36.649Z,64.90
2022-11-27T03:04:46.518Z,70.80
2022-11-27T03:09:59.165Z,71.80
2022-11-27T03:15:06.674Z,71.60
2022-11-27T03:20:18.840Z,75.80
2022-11-27T03:25:25.137Z,72.70
2022-11-27T03:30:30.870Z,79.80
2022-11-27T03:35:36.686Z,71.70
2022-11-27T03:40:50.351Z,70.90
2022-11-27T03:46:01.063Z,69.70
2022-11-27T03:51:15.200Z,73.20
2022-11-27T03:56:32.440Z,78.70
2022-11-27T04:01:39.126Z,76.80
2022-11-27T04:06:45.026Z,74.50
2022-11-27T04:11:50.635Z,81.60
2022-11-27T04:16:56.477Z,86.50
2022-11-27T04:22:02.460Z,85.70
2022-11-27T04:27:08.388Z,91.20
2022-11-27T04:32:14.251Z,87.90
2022-11-27T04:37:19.963Z,85.30
2022-11-27T04:42:27.036Z,95.60
2022-11-27T04:47:32.885Z,94.20
2022-11-27T04:52:38.769Z,91.90
2022-11-27T04:57:44.598Z,96.60
2022-11-27T05:02:50.403Z,99.70
2022-11-27T05:07:56.319Z,102.40
2022-11-27T05:13:02.151Z,88.80
2022-11-27T05:18:08.119Z,91.50
2022-11-27T05:23:13.836Z,91.20
2022-11-27T05:28:26.254Z,90.80
2022-11-27T05:33:32.527Z,90.00
2022-11-27T05:38:38.423Z,92.00
2022-11-27T05:43:44.287Z,95.20
2022-11-27T05:48:50.669Z,98.20
2022-11-27T05:53:56.414Z,105.10
2022-11-27T05:59:02.273Z,101.20
2022-11-27T06:04:08.192Z,101.70
2022-11-27T06:09:14.066Z,102.30
2022-11-27T06:14:19.705Z,108.40
2022-11-27T06:19:25.502Z,110.00
2022-11-27T06:24:31.211Z,94.80
2022-11-27T06:29:37.916Z,91.80
2022-11-27T06:34:43.848Z,106.80
2022-11-27T06:39:50.794Z,109.50
2022-11-27T06:44:56.540Z,107.00
2022-11-27T06:50:02.289Z,97.70
2022-11-27T06:55:09.004Z,115.80
2022-11-27T07:00:16.566Z,115.60
2022-11-27T07:05:23.125Z,122.10
2022-11-27T07:10:28.921Z,115.20
2022-11-27T07:15:35.957Z,136.40
2022-11-27T07:20:41.835Z,134.50
2022-11-27T07:25:47.526Z,128.50
2022-11-27T07:30:58.565Z,129.10
2022-11-27T07:41:10.665Z,123.70
2022-11-27T07:46:18.916Z,135.40
2022-11-27T07:51:24.631Z,129.10
2022-11-27T07:56:30.766Z,133.60
2022-11-27T08:01:36.800Z,124.40
2022-11-27T08:06:42.625Z,138.80
2022-11-27T08:11:48.353Z,139.60
2022-11-27T08:16:54.143Z,132.90
2022-11-27T08:21:59.835Z,145.90
2022-11-27T08:27:05.531Z,162.30
2022-11-27T08:32:11.941Z,158.30
2022-11-27T08:37:17.838Z,164.40
2022-11-27T08:42:23.732Z,146.60
2022-11-27T08:47:29.629Z,155.80
2022-11-27T08:52:35.374Z,171.20
2022-11-27T08:57:41.153Z,149.70
2022-11-27T09:02:46.956Z,152.90
2022-11-27T09:07:53.197Z,145.30
2022-11-27T09:12:59.698Z,138.40
2022-11-27T09:18:05.711Z,135.70
2022-11-27T09:23:14.521Z,123.00
2022-11-27T09:28:21.181Z,126.60
2022-11-27T09:33:28.520Z,127.70
2022-11-27T09:38:35.168Z,112.10
2022-11-27T09:43:53.389Z,130.10
2022-11-27T09:49:03.313Z,116.70
2022-11-27T09:54:16.539Z,130.40
2022-11-27T09:59:29.078Z,122.90
2022-11-27T10:04:58.043Z,109.30
2022-11-27T10:10:16.244Z,116.30
2022-11-27T10:15:36.561Z,114.00
2022-11-27T10:20:48.823Z,109.00
2022-11-27T10:25:58.020Z,103.50
2022-11-27T10:31:11.439Z,91.00
2022-11-27T10:36:28.416Z,97.70
2022-11-27T10:41:49.444Z,100.20
2022-11-27T10:47:02.086Z,94.10
2022-11-27T10:52:14.259Z,87.80
2022-11-27T10:57:40.398Z,89.80
2022-11-27T11:02:46.273Z,93.90
2022-11-27T11:08:02.085Z,94.20
2022-11-27T11:13:19.819Z,93.00
2022-11-27T11:18:27.765Z,93.00
2022-11-27T11:23:35.771Z,85.20
2022-11-27T11:28:50.112Z,89.80
2022-11-27T11:33:59.168Z,98.10
2022-11-27T11:39:05.152Z,94.40
2022-11-27T11:44:25.830Z,89.40
2022-11-27T11:49:34.029Z,73.80
2022-11-27T11:54:53.518Z,78.30
2022-11-27T12:00:05.841Z,105.20
2022-11-27T12:05:24.324Z,95.50
2022-11-27T12:10:38.201Z,73.50
2022-11-27T12:15:50.608Z,80.50
2022-11-27T12:21:07.042Z,96.20
2022-11-27T12:26:28.087Z,98.70
2022-11-27T12:31:53.251Z,85.20
2022-11-27T12:37:17.332Z,76.40
2022-11-27T12:42:29.595Z,79.00
2022-11-27T12:47:41.021Z,76.80
2022-11-27T12:52:55.369Z,75.90
2022-11-27T12:58:06.440Z,73.80
2022-11-27T13:08:26.181Z,72.30
2022-11-27T13:13:37.799Z,71.50
2022-11-27T13:18:49.476Z,79.00
2022-11-27T13:23:55.693Z,79.60
2022-11-27T13:29:05.979Z,73.30
2022-11-27T13:34:20.531Z,67.80
2022-11-27T13:39:28.538Z,75.30
2022-11-27T13:44:40.217Z,75.50
2022-11-27T13:49:57.847Z,78.10
2022-11-27T13:55:06.265Z,71.80
2022-11-27T14:00:16.281Z,64.20
2022-11-27T14:05:35.365Z,69.40
2022-11-27T14:10:51.553Z,71.60
2022-11-27T14:16:05.011Z,89.10
2022-11-27T14:21:26.134Z,76.60
2022-11-27T14:26:32.111Z,71.40
2022-11-27T14:31:37.829Z,70.50
2022-11-27T14:36:43.601Z,78.50
2022-11-27T14:41:58.171Z,77.10
2022-11-27T14:47:06.959Z,68.30
2022-11-27T14:52:17.780Z,62.80
2022-11-27T14:57:26.618Z,67.70
2022-11-27T15:02:32.694Z,69.80
2022-11-27T15:07:47.982Z,71.70
2022-11-27T15:12:56.658Z,67.20
2022-11-27T15:18:06.600Z,67.30
2022-11-27T15:23:19.817Z,72.50
2022-11-27T15:28:36.320Z,89.90
2022-11-27T15:33:42.364Z,112.40
2022-11-27T15:38:51.028Z,119.80
2022-11-27T15:43:56.894Z,128.10
2022-11-27T15:49:02.768Z,127.50
2022-11-27T15:54:08.577Z,131.90
2022-11-27T15:59:14.560Z,146.50
2022-11-27T16:04:20.841Z,218.70
2022-11-27T16:09:26.546Z,162.90
2022-11-27T16:14:32.172Z,176.50
2022-11-27T16:19:37.834Z,180.30
2022-11-27T16:24:44.635Z,174.70
2022-11-27T16:29:50.566Z,169.90
2022-11-27T16:34:56.481Z,158.80
2022-11-27T16:40:02.700Z,152.50
2022-11-27T16:45:10.269Z,233.10
2022-11-27T16:50:17.098Z,172.50
2022-11-27T16:55:24.038Z,130.40
2022-11-27T17:00:30.356Z,127.40
2022-11-27T17:05:38.405Z,136.50
2022-11-27T17:10:45.412Z,132.50
2022-11-27T17:15:51.343Z,149.50
2022-11-27T17:21:02.631Z,140.40
2022-11-27T17:26:13.081Z,131.40
2022-11-27T17:31:21.061Z,147.70
2022-11-27T17:36:33.795Z,159.10
2022-11-27T17:41:46.914Z,164.30
2022-11-27T17:46:52.561Z,139.80
2022-11-27T17:52:01.792Z,131.80
2022-11-27T17:57:10.974Z,136.70
2022-11-27T18:02:18.039Z,153.10
2022-11-27T18:07:24.483Z,167.00
2022-11-27T18:12:30.379Z,167.00
2022-11-27T18:17:36.954Z,169.20
2022-11-27T18:22:42.707Z,208.50
2022-11-27T18:27:48.545Z,217.40
2022-11-27T18:32:54.474Z,193.00
2022-11-27T18:38:00.313Z,208.00
2022-11-27T18:43:06.063Z,199.40
2022-11-27T18:48:12.189Z,238.10
2022-11-27T18:53:17.858Z,244.50
2022-11-27T18:58:23.600Z,247.10
2022-11-27T19:03:29.487Z,231.00
2022-11-27T19:08:37.201Z,243.90
2022-11-27T19:13:43.923Z,234.10
2022-11-27T19:18:50.072Z,182.10
2022-11-27T19:23:57.432Z,180.20
2022-11-27T19:29:05.853Z,155.70
2022-11-27T19:34:13.999Z,153.90
2022-11-27T19:39:20.008Z,151.50
2022-11-27T19:44:27.208Z,147.30
2022-11-27T19:49:33.103Z,148.20
2022-11-27T19:54:39.501Z,147.70
2022-11-27T19:59:46.144Z,152.00
2022-11-27T20:04:53.854Z,148.50
2022-11-27T20:09:59.805Z,155.40
2022-11-27T20:15:07.770Z,136.90
2022-11-27T20:20:16.657Z,151.20
2022-11-27T20:25:22.689Z,152.60
2022-11-27T20:30:28.547Z,160.10
2022-11-27T20:35:34.331Z,154.80
2022-11-27T20:40:41.187Z,151.40
2022-11-27T20:45:47.144Z,145.30
2022-11-27T20:50:53.061Z,158.10
2022-11-27T20:56:04.162Z,157.80
2022-11-27T21:01:16.647Z,141.20
2022-11-27T21:06:24.261Z,144.30
2022-11-27T21:11:32.593Z,145.40
2022-11-27T21:16:42.010Z,174.40
2022-11-27T21:21:48.196Z,166.80
2022-11-27T21:26:54.225Z,166.50
2022-11-27T21:32:00.282Z,161.80
2022-11-27T21:37:06.483Z,172.60
2022-11-27T21:42:13.335Z,188.90
2022-11-27T21:47:19.361Z,161.50
2022-11-27T21:52:25.354Z,154.60
2022-11-27T21:57:31.357Z,153.40
2022-11-27T22:02:37.304Z,170.30
2022-11-27T22:07:43.338Z,157.70
2022-11-27T22:12:49.161Z,139.30
2022-11-27T22:17:55.035Z,138.30
2022-11-27T22:23:01.589Z,138.20
2022-11-27T22:28:07.545Z,136.40
2022-11-27T22:33:14.657Z,122.10
2022-11-27T22:38:20.457Z,135.10
2022-11-27T22:43:26.230Z,136.30
2022-11-27T22:48:32.423Z,138.30
2022-11-27T22:53:38.918Z,135.20
2022-11-27T22:58:44.857Z,127.60
2022-11-27T23:03:53.200Z,133.30
2022-11-27T23:08:59.729Z,138.10
2022-11-27T23:14:05.649Z,119.20
2022-11-27T23:19:12.412Z,127.00
2022-11-27T23:24:18.220Z,132.80
2022-11-27T23:29:24.013Z,134.60
2022-11-27T23:34:30.659Z,128.90
2022-11-27T23:39:36.703Z,116.10
2022-11-27T23:44:42.595Z,123.80
2022-11-27T23:49:48.686Z,127.30
2022-11-27T23:54:54.475Z,125.00
